Terminal Aerodrome Forecast
Issued by NWS Bismarck, ND

Home | Current Version | Previous Version | Text Only | Print | Product List | Glossary On
Versions: 1 2 3 4 5 6 7 8 9 10 11 12 13 14 15 16 17 18
000
FTUS43 KBIS 180530
TAFBIS
TAF
KBIS 180530Z 1806/1906 23007KT P6SM SCT040 BKN080
      TEMPO 1806/1810 BKN040 OVC100
     FM181000 24006KT P6SM BKN100
     FM181600 25012KT P6SM OVC070
     FM182000 28015G22KT P6SM BKN060
     FM190200 31009KT P6SM BKN060=

USA.gov is the U.S. government's official web portal to all federal, state and local government web resources and services.